createdAt,value
2023-01-07T00:02:38.068Z,12.90
2023-01-07T00:05:23.568Z,12.90
2023-01-07T00:08:09.267Z,12.80
2023-01-07T00:10:54.827Z,12.80
2023-01-07T00:13:40.397Z,12.80
2023-01-07T00:16:28.067Z,12.80
2023-01-07T00:19:14.624Z,12.90
2023-01-07T00:21:59.969Z,12.80
2023-01-07T00:24:45.587Z,12.80
2023-01-07T00:27:31.191Z,12.80
2023-01-07T00:30:17.440Z,12.80
2023-01-07T00:33:04.372Z,12.80
2023-01-07T00:35:58.153Z,12.70
2023-01-07T00:38:43.809Z,12.70
2023-01-07T00:41:29.256Z,12.80
2023-01-07T00:44:15.000Z,12.70
2023-01-07T00:47:00.866Z,12.70
2023-01-07T00:49:46.979Z,12.70
2023-01-07T00:52:32.312Z,12.70
2023-01-07T00:55:18.034Z,12.80
2023-01-07T00:58:03.709Z,12.80
2023-01-07T01:00:49.583Z,12.80
2023-01-07T01:03:35.124Z,12.80
2023-01-07T01:06:20.954Z,12.70
2023-01-07T01:09:06.675Z,12.70
2023-01-07T01:11:52.404Z,12.70
2023-01-07T01:14:37.987Z,12.70
2023-01-07T01:17:23.771Z,12.60
2023-01-07T01:20:11.520Z,12.60
2023-01-07T01:22:57.369Z,12.60
2023-01-07T01:25:42.994Z,12.60
2023-01-07T01:28:29.113Z,12.60
2023-01-07T01:31:14.791Z,12.70
2023-01-07T01:34:05.447Z,12.60
2023-01-07T01:36:52.451Z,12.60
2023-01-07T01:39:38.615Z,12.70
2023-01-07T01:42:25.305Z,12.70
2023-01-07T01:45:12.873Z,12.60
2023-01-07T01:48:03.220Z,12.60
2023-01-07T01:50:50.040Z,12.60
2023-01-07T01:53:35.862Z,12.60
2023-01-07T01:56:25.216Z,12.60
2023-01-07T01:59:12.733Z,12.60
2023-01-07T02:01:59.306Z,12.60
2023-01-07T02:04:44.683Z,12.50
2023-01-07T02:07:30.184Z,12.60
2023-01-07T02:10:19.037Z,12.60
2023-01-07T02:13:07.575Z,12.60
2023-01-07T02:16:11.882Z,12.50
2023-01-07T02:19:13.873Z,12.60
2023-01-07T02:22:22.521Z,12.60
2023-01-07T02:25:14.298Z,12.60
2023-01-07T02:28:23.099Z,12.60
2023-01-07T02:31:27.476Z,12.60
2023-01-07T02:34:22.311Z,12.60
2023-01-07T02:37:19.564Z,12.60
2023-01-07T02:40:11.223Z,12.50
2023-01-07T02:42:59.931Z,12.60
2023-01-07T02:45:49.435Z,12.60
2023-01-07T02:48:35.462Z,12.50
2023-01-07T02:51:20.992Z,12.50
2023-01-07T02:54:08.241Z,12.60
2023-01-07T02:56:54.279Z,12.50
2023-01-07T02:59:39.744Z,12.50
2023-01-07T03:02:46.877Z,12.50
2023-01-07T03:05:35.384Z,12.50
2023-01-07T03:08:48.461Z,12.50
2023-01-07T03:11:53.012Z,12.60
2023-01-07T03:14:41.891Z,12.50
2023-01-07T03:17:40.983Z,12.50
2023-01-07T03:20:27.872Z,12.60
2023-01-07T03:23:15.007Z,12.60
2023-01-07T03:26:05.494Z,12.60
2023-01-07T03:28:51.982Z,12.60
2023-01-07T03:31:40.264Z,12.60
2023-01-07T03:34:26.683Z,12.60
2023-01-07T03:37:14.281Z,12.60
2023-01-07T03:40:03.436Z,12.50
2023-01-07T03:42:49.890Z,12.50
2023-01-07T03:45:42.840Z,12.50
2023-01-07T03:48:28.454Z,12.50
2023-01-07T03:51:14.731Z,12.50
2023-01-07T03:54:00.317Z,12.40
2023-01-07T03:56:46.053Z,12.40
2023-01-07T03:59:31.704Z,12.50
2023-01-07T04:02:17.562Z,12.40
2023-01-07T04:05:03.819Z,12.40
2023-01-07T04:07:48.971Z,12.40
2023-01-07T04:10:35.136Z,12.50
2023-01-07T04:13:21.032Z,12.40
2023-01-07T04:16:08.424Z,12.40
2023-01-07T04:18:54.811Z,12.40
2023-01-07T04:21:40.258Z,12.50
2023-01-07T04:24:25.789Z,12.50
2023-01-07T04:27:11.464Z,12.50
2023-01-07T04:29:57.140Z,12.50
2023-01-07T04:32:42.888Z,12.40
2023-01-07T04:35:28.707Z,12.40
2023-01-07T04:38:14.803Z,12.50
2023-01-07T04:41:00.466Z,12.50
2023-01-07T04:43:45.973Z,12.50
2023-01-07T04:46:32.123Z,12.50
2023-01-07T04:49:18.269Z,12.50
2023-01-07T04:52:04.008Z,12.50
2023-01-07T04:54:49.376Z,12.60
2023-01-07T04:57:34.913Z,12.60
2023-01-07T05:00:20.607Z,12.60
2023-01-07T05:03:08.447Z,12.50
2023-01-07T05:05:54.618Z,12.50
2023-01-07T05:08:40.302Z,12.50
2023-01-07T05:11:26.616Z,12.40
2023-01-07T05:14:14.619Z,12.50
2023-01-07T05:17:00.400Z,12.50
2023-01-07T05:19:48.163Z,12.40
2023-01-07T05:22:34.730Z,12.40
2023-01-07T05:25:20.506Z,12.40
2023-01-07T05:28:05.954Z,12.30
2023-01-07T05:30:54.070Z,12.40
2023-01-07T05:33:39.790Z,12.50
2023-01-07T05:36:25.272Z,12.50
2023-01-07T05:39:11.864Z,12.50
2023-01-07T05:41:57.548Z,12.40
2023-01-07T05:44:44.197Z,12.40
2023-01-07T05:47:29.848Z,12.40
2023-01-07T05:50:15.792Z,12.40
2023-01-07T05:53:00.932Z,12.40
2023-01-07T05:55:46.544Z,12.50
2023-01-07T05:58:31.958Z,12.70
2023-01-07T06:01:17.759Z,12.90
2023-01-07T06:04:03.332Z,13.20
2023-01-07T06:06:48.876Z,13.40
2023-01-07T06:09:34.516Z,13.50
2023-01-07T06:12:20.195Z,13.60
2023-01-07T06:15:07.302Z,13.70
2023-01-07T06:17:52.918Z,13.80
2023-01-07T06:20:38.503Z,13.90
2023-01-07T06:23:24.340Z,14.00
2023-01-07T06:26:10.092Z,14.00
2023-01-07T06:28:55.567Z,14.00
2023-01-07T06:31:41.295Z,14.10
2023-01-07T06:34:26.909Z,14.10
2023-01-07T06:37:14.898Z,14.10
2023-01-07T06:40:00.345Z,14.10
2023-01-07T06:42:45.885Z,14.20
2023-01-07T06:45:31.619Z,14.20
2023-01-07T06:48:17.377Z,14.20
2023-01-07T06:51:02.926Z,14.20
2023-01-07T06:53:48.554Z,14.20
2023-01-07T06:56:34.029Z,14.30
2023-01-07T06:59:19.623Z,14.30
2023-01-07T07:02:05.279Z,14.30
2023-01-07T07:04:50.950Z,14.30
2023-01-07T07:07:36.673Z,14.30
2023-01-07T07:10:22.073Z,14.30
2023-01-07T07:13:08.417Z,14.40
2023-01-07T07:15:54.124Z,14.40
2023-01-07T07:18:39.673Z,14.40
2023-01-07T07:21:25.326Z,14.40
2023-01-07T07:24:10.818Z,14.40
2023-01-07T07:26:56.591Z,14.40
2023-01-07T07:29:42.316Z,14.40
2023-01-07T07:32:28.588Z,14.50
2023-01-07T07:35:14.110Z,14.40
2023-01-07T07:37:59.728Z,14.50
2023-01-07T07:40:46.065Z,14.40
2023-01-07T07:43:34.429Z,14.40
2023-01-07T07:46:19.954Z,14.40
2023-01-07T07:49:06.079Z,14.40
2023-01-07T07:51:51.729Z,14.40
2023-01-07T07:54:37.265Z,14.40
2023-01-07T07:57:22.971Z,14.40
2023-01-07T08:00:08.988Z,14.50
2023-01-07T08:03:00.903Z,14.40
2023-01-07T08:05:46.183Z,14.40
2023-01-07T08:08:32.181Z,14.40
2023-01-07T08:11:17.452Z,14.40
2023-01-07T08:14:03.050Z,14.40
2023-01-07T08:16:48.876Z,14.40
2023-01-07T08:19:34.316Z,14.30
2023-01-07T08:22:19.992Z,14.30
2023-01-07T08:25:05.747Z,14.40
2023-01-07T08:27:51.211Z,14.30
2023-01-07T08:30:36.850Z,14.30
2023-01-07T08:33:22.376Z,14.30
2023-01-07T08:36:18.248Z,14.30
2023-01-07T08:39:06.977Z,14.30
2023-01-07T08:41:52.640Z,14.30
2023-01-07T08:44:38.212Z,14.30
2023-01-07T08:47:26.085Z,14.30
2023-01-07T08:50:11.802Z,14.30
2023-01-07T08:52:57.477Z,14.30
2023-01-07T08:55:42.864Z,14.30
2023-01-07T08:58:28.684Z,14.30
2023-01-07T09:01:14.319Z,14.30
2023-01-07T09:03:59.743Z,14.30
2023-01-07T09:06:45.591Z,14.30
2023-01-07T09:09:31.011Z,14.30
2023-01-07T09:12:16.610Z,14.40
2023-01-07T09:15:02.529Z,14.40
2023-01-07T09:17:48.007Z,14.40
2023-01-07T09:20:33.651Z,14.40
2023-01-07T09:23:19.455Z,14.40
2023-01-07T09:26:04.940Z,14.40
2023-01-07T09:28:50.962Z,14.30
2023-01-07T09:31:36.568Z,14.50
2023-01-07T09:34:22.069Z,14.40
2023-01-07T09:37:07.960Z,14.50
2023-01-07T09:39:53.373Z,14.50
2023-01-07T09:42:45.240Z,14.60
2023-01-07T09:45:33.296Z,14.60
2023-01-07T09:48:19.387Z,14.60
2023-01-07T09:51:07.224Z,14.60
2023-01-07T09:53:54.502Z,14.60
2023-01-07T09:56:40.564Z,14.60
2023-01-07T09:59:26.517Z,14.60
2023-01-07T10:02:31.256Z,14.70
2023-01-07T10:05:19.689Z,14.70
2023-01-07T10:08:30.968Z,14.70
2023-01-07T10:11:19.035Z,14.70
2023-01-07T10:14:04.675Z,14.70
2023-01-07T10:17:19.578Z,14.70
2023-01-07T10:20:08.283Z,14.70
2023-01-07T10:23:00.638Z,14.80
2023-01-07T10:25:48.217Z,14.80
2023-01-07T10:28:51.246Z,14.80
2023-01-07T10:31:37.196Z,14.80
2023-01-07T10:34:25.197Z,14.80
2023-01-07T10:37:28.297Z,14.80
2023-01-07T10:40:13.639Z,14.80
2023-01-07T10:43:02.803Z,14.80
2023-01-07T10:45:51.599Z,14.90
2023-01-07T10:48:50.849Z,14.90
2023-01-07T10:51:55.157Z,14.90
2023-01-07T10:54:56.169Z,14.90
2023-01-07T10:57:41.799Z,14.90
2023-01-07T11:00:27.531Z,14.90
2023-01-07T11:03:23.938Z,14.90
2023-01-07T11:06:12.740Z,14.90
2023-01-07T11:08:58.331Z,14.90
2023-01-07T11:11:45.056Z,14.90
2023-01-07T11:14:33.574Z,14.90
2023-01-07T11:17:40.457Z,14.90
2023-01-07T11:20:44.537Z,14.90
2023-01-07T11:23:37.383Z,14.90
2023-01-07T11:26:24.934Z,14.90
2023-01-07T11:29:27.747Z,14.90
2023-01-07T11:32:27.638Z,15.00
2023-01-07T11:35:22.572Z,15.00
2023-01-07T11:38:25.541Z,15.00
2023-01-07T11:41:24.448Z,15.00
2023-01-07T11:44:15.141Z,15.00
2023-01-07T11:47:00.821Z,15.00
2023-01-07T11:49:46.381Z,15.00
2023-01-07T11:52:32.302Z,15.00
2023-01-07T11:55:19.720Z,15.00
2023-01-07T11:58:29.824Z,15.00
2023-01-07T12:01:14.191Z,15.10
2023-01-07T12:03:59.644Z,15.10
2023-01-07T12:06:46.252Z,15.00
2023-01-07T12:09:31.897Z,15.00
2023-01-07T12:12:37.091Z,15.10
2023-01-07T12:15:27.021Z,15.10
2023-01-07T12:18:25.401Z,15.10
2023-01-07T12:21:13.966Z,15.10
2023-01-07T12:24:14.907Z,15.10
2023-01-07T12:27:00.648Z,15.20
2023-01-07T12:29:58.682Z,15.20
2023-01-07T12:33:22.563Z,15.20
2023-01-07T12:36:24.508Z,15.20
2023-01-07T12:39:16.102Z,15.20
2023-01-07T12:42:08.218Z,15.30
2023-01-07T12:45:00.078Z,15.30
2023-01-07T12:47:51.607Z,15.30
2023-01-07T12:50:40.542Z,15.30
2023-01-07T12:53:32.495Z,15.30
2023-01-07T12:56:25.652Z,15.30
2023-01-07T12:59:46.478Z,15.30
2023-01-07T13:02:33.068Z,15.30
2023-01-07T13:05:24.755Z,15.30
2023-01-07T13:08:18.468Z,15.30
2023-01-07T13:11:08.750Z,15.30
2023-01-07T13:13:54.638Z,15.40
2023-01-07T13:16:40.419Z,15.40
2023-01-07T13:19:26.218Z,15.40
2023-01-07T13:22:23.709Z,15.40
2023-01-07T13:25:12.685Z,15.50
2023-01-07T13:27:57.795Z,15.50
2023-01-07T13:30:58.851Z,15.50
2023-01-07T13:33:59.149Z,15.50
2023-01-07T13:36:45.218Z,15.60
2023-01-07T13:39:49.710Z,15.50
2023-01-07T13:42:41.671Z,15.60
2023-01-07T13:45:32.165Z,15.60
2023-01-07T13:48:22.604Z,15.60
2023-01-07T13:51:09.239Z,15.60
2023-01-07T13:53:54.982Z,15.60
2023-01-07T13:56:40.751Z,15.50
2023-01-07T13:59:31.011Z,15.50
2023-01-07T14:02:24.877Z,15.50
2023-01-07T14:05:10.678Z,15.50
2023-01-07T14:07:58.456Z,15.50
2023-01-07T14:10:51.503Z,15.50
2023-01-07T14:13:57.187Z,15.50
2023-01-07T14:16:46.596Z,15.50
2023-01-07T14:19:35.498Z,15.50
2023-01-07T14:22:33.004Z,15.50
2023-01-07T14:25:37.467Z,15.50
2023-01-07T14:28:32.092Z,15.50
2023-01-07T14:31:25.419Z,15.50
2023-01-07T14:34:25.028Z,15.50
2023-01-07T14:37:15.220Z,15.50
2023-01-07T14:40:00.784Z,15.50
2023-01-07T14:42:46.329Z,15.50
2023-01-07T14:45:40.946Z,15.50
2023-01-07T14:48:30.995Z,15.50
2023-01-07T14:51:35.069Z,15.50
2023-01-07T14:54:33.180Z,15.50
2023-01-07T14:57:37.167Z,15.50
2023-01-07T15:00:41.636Z,15.50
2023-01-07T15:03:36.545Z,15.50
2023-01-07T15:06:22.140Z,15.50
2023-01-07T15:09:29.677Z,15.50
2023-01-07T15:12:42.886Z,15.50
2023-01-07T15:15:48.177Z,15.30
2023-01-07T15:18:45.896Z,15.50
2023-01-07T15:21:31.261Z,15.50
2023-01-07T15:24:19.936Z,15.50
2023-01-07T15:27:13.477Z,15.50
2023-01-07T15:30:17.478Z,15.40
2023-01-07T15:33:21.955Z,15.40
2023-01-07T15:36:09.687Z,15.50
2023-01-07T15:38:56.014Z,15.50
2023-01-07T15:41:41.936Z,15.50
2023-01-07T15:44:40.956Z,15.40
2023-01-07T15:47:29.900Z,15.40
2023-01-07T15:50:21.640Z,15.40
2023-01-07T15:53:10.375Z,15.40
2023-01-07T15:55:58.027Z,15.40
2023-01-07T15:58:44.946Z,15.30
2023-01-07T16:01:30.550Z,15.30
2023-01-07T16:04:24.545Z,15.30
2023-01-07T16:07:19.416Z,15.30
2023-01-07T16:10:04.910Z,15.30
2023-01-07T16:12:51.812Z,15.30
2023-01-07T16:15:38.181Z,15.30
2023-01-07T16:18:24.073Z,15.30
2023-01-07T16:21:13.052Z,15.30
2023-01-07T16:23:59.246Z,15.30
2023-01-07T16:26:47.093Z,15.30
2023-01-07T16:29:44.668Z,15.30
2023-01-07T16:32:30.413Z,15.30
2023-01-07T16:35:21.999Z,15.30
2023-01-07T16:38:09.032Z,15.30
2023-01-07T16:40:54.986Z,15.30
2023-01-07T16:43:40.598Z,15.30
2023-01-07T16:46:26.258Z,15.30
2023-01-07T16:49:11.770Z,15.30
2023-01-07T16:52:03.451Z,15.30
2023-01-07T16:54:49.759Z,15.30
2023-01-07T16:57:45.803Z,15.30
2023-01-07T17:00:31.566Z,15.30
2023-01-07T17:03:17.146Z,15.30
2023-01-07T17:06:04.557Z,15.30
2023-01-07T17:08:51.343Z,15.30
2023-01-07T17:11:39.994Z,15.30
2023-01-07T17:14:35.709Z,15.30
2023-01-07T17:17:25.015Z,15.30
2023-01-07T17:20:22.616Z,15.30
2023-01-07T17:23:26.391Z,15.30
2023-01-07T17:26:23.086Z,15.30
2023-01-07T17:29:11.071Z,15.30
2023-01-07T17:31:56.390Z,15.30
2023-01-07T17:34:42.110Z,15.20
2023-01-07T17:37:27.736Z,15.30
2023-01-07T17:40:14.319Z,15.30
2023-01-07T17:43:18.655Z,15.30
2023-01-07T17:46:09.629Z,15.20
2023-01-07T17:48:55.374Z,15.30
2023-01-07T17:51:42.101Z,15.20
2023-01-07T17:54:27.849Z,15.20
2023-01-07T17:57:13.407Z,15.20
2023-01-07T17:59:59.197Z,15.20
2023-01-07T18:02:45.601Z,15.40
2023-01-07T18:05:31.438Z,15.20
2023-01-07T18:08:17.030Z,15.20
2023-01-07T18:11:21.211Z,15.20
2023-01-07T18:14:06.504Z,15.30
2023-01-07T18:16:52.811Z,15.20
2023-01-07T18:19:38.105Z,15.30
2023-01-07T18:22:25.276Z,15.30
2023-01-07T18:25:14.464Z,15.20
2023-01-07T18:28:00.205Z,15.20
2023-01-07T18:30:45.862Z,15.20
2023-01-07T18:33:31.514Z,15.20
2023-01-07T18:36:17.034Z,15.20
2023-01-07T18:39:03.981Z,15.20
2023-01-07T18:41:50.265Z,15.20
2023-01-07T18:44:36.021Z,15.20
2023-01-07T18:47:21.910Z,15.20
2023-01-07T18:50:08.444Z,15.20
2023-01-07T18:52:54.032Z,15.20
2023-01-07T18:55:40.833Z,15.20
2023-01-07T18:58:26.875Z,15.20
2023-01-07T19:01:12.414Z,15.20
2023-01-07T19:03:57.938Z,15.30
2023-01-07T19:06:43.693Z,15.30
2023-01-07T19:09:30.104Z,15.30
2023-01-07T19:12:15.701Z,15.30
2023-01-07T19:15:01.322Z,15.30
2023-01-07T19:17:47.382Z,15.30
2023-01-07T19:20:33.468Z,15.30
2023-01-07T19:23:19.213Z,15.30
2023-01-07T19:26:06.142Z,15.30
2023-01-07T19:28:51.531Z,15.30
2023-01-07T19:31:37.264Z,15.30
2023-01-07T19:34:22.848Z,15.30
2023-01-07T19:37:08.505Z,15.30
2023-01-07T19:39:54.192Z,15.30
2023-01-07T19:42:39.791Z,15.30
2023-01-07T19:45:25.495Z,15.30
2023-01-07T19:48:11.174Z,15.30
2023-01-07T19:50:58.058Z,15.30
2023-01-07T19:53:43.660Z,15.30
2023-01-07T19:56:30.872Z,15.30
2023-01-07T19:59:16.137Z,15.30
2023-01-07T20:02:02.902Z,15.30
2023-01-07T20:04:48.414Z,15.30
2023-01-07T20:07:35.014Z,15.30
2023-01-07T20:10:20.579Z,15.30
2023-01-07T20:13:06.482Z,15.30
2023-01-07T20:15:52.309Z,15.30
2023-01-07T20:18:48.238Z,15.30
2023-01-07T20:21:33.731Z,15.30
2023-01-07T20:24:19.093Z,15.30
2023-01-07T20:27:04.891Z,15.30
2023-01-07T20:29:50.145Z,15.30
2023-01-07T20:32:35.777Z,15.30
2023-01-07T20:35:22.677Z,15.40
2023-01-07T20:38:09.513Z,15.30
2023-01-07T20:40:55.014Z,15.30
2023-01-07T20:43:40.454Z,15.30
2023-01-07T20:46:27.119Z,15.30
2023-01-07T20:49:13.383Z,15.30
2023-01-07T20:51:58.987Z,15.30
2023-01-07T20:54:46.637Z,15.30
2023-01-07T20:57:32.819Z,15.30
2023-01-07T21:00:18.694Z,15.30
2023-01-07T21:03:05.994Z,15.30
2023-01-07T21:05:54.830Z,15.30
2023-01-07T21:08:40.587Z,15.30
2023-01-07T21:11:26.208Z,15.30
2023-01-07T21:14:11.863Z,15.30
2023-01-07T21:16:57.528Z,15.30
2023-01-07T21:19:44.280Z,15.30
2023-01-07T21:22:30.135Z,15.30
2023-01-07T21:25:16.076Z,15.30
2023-01-07T21:28:02.171Z,15.30
2023-01-07T21:30:47.862Z,15.30
2023-01-07T21:33:33.581Z,15.30
2023-01-07T21:36:19.120Z,15.20
2023-01-07T21:39:04.841Z,15.30
2023-01-07T21:41:50.230Z,15.20
2023-01-07T21:44:35.929Z,15.30
2023-01-07T21:47:21.320Z,15.30
2023-01-07T21:50:07.506Z,15.30
2023-01-07T21:52:53.130Z,15.00
2023-01-07T21:55:39.705Z,14.70
2023-01-07T21:58:25.319Z,14.40
2023-01-07T22:01:11.419Z,14.10
2023-01-07T22:03:58.667Z,14.00
2023-01-07T22:06:44.244Z,13.70
2023-01-07T22:09:29.526Z,13.60
2023-01-07T22:12:15.199Z,13.60
2023-01-07T22:15:00.793Z,13.30
2023-01-07T22:17:46.264Z,13.20
2023-01-07T22:20:31.939Z,13.10
2023-01-07T22:23:17.595Z,13.10
2023-01-07T22:26:07.281Z,13.00
2023-01-07T22:28:55.011Z,13.00
2023-01-07T22:31:41.091Z,13.10
2023-01-07T22:34:26.770Z,13.00
2023-01-07T22:37:14.833Z,12.90
2023-01-07T22:40:01.326Z,12.80
2023-01-07T22:42:51.937Z,12.90
2023-01-07T22:45:43.536Z,12.80
2023-01-07T22:48:31.832Z,12.80
2023-01-07T22:51:20.092Z,12.80
2023-01-07T22:54:05.935Z,12.70
2023-01-07T22:56:51.698Z,12.60
2023-01-07T22:59:37.702Z,12.60
2023-01-07T23:02:23.264Z,12.60
2023-01-07T23:05:08.991Z,12.60
2023-01-07T23:07:54.576Z,12.60
2023-01-07T23:10:40.688Z,12.60
2023-01-07T23:13:26.406Z,12.60
2023-01-07T23:16:11.894Z,12.60
2023-01-07T23:18:57.557Z,12.60
2023-01-07T23:21:43.908Z,12.60
2023-01-07T23:24:29.529Z,12.60
2023-01-07T23:27:15.175Z,12.60
2023-01-07T23:30:00.880Z,12.60
2023-01-07T23:32:46.655Z,12.60
2023-01-07T23:35:32.545Z,12.70
2023-01-07T23:38:17.995Z,12.60
2023-01-07T23:41:04.564Z,12.60
2023-01-07T23:43:50.189Z,12.70
2023-01-07T23:46:35.659Z,12.70
2023-01-07T23:49:21.382Z,12.70
2023-01-07T23:52:06.908Z,12.60
2023-01-07T23:54:52.463Z,12.60
2023-01-07T23:57:37.982Z,12.60
